CDT,Max TemperatureF,Mean TemperatureF,Min TemperatureF,Max Dew PointF,MeanDew PointF,Min DewpointF,Max Humidity, Mean Humidity, Min Humidity, Max Sea Level PressureIn, Mean Sea Level PressureIn, Min Sea Level PressureIn, Max VisibilityMiles, Mean VisibilityMiles, Min VisibilityMiles, Max Wind SpeedMPH, Mean Wind SpeedMPH, Max Gust SpeedMPH,PrecipitationIn, CloudCover, Events, WindDirDegrees
2013-8-1,86,68,51,63,56,50,94,66,35,30.11,30.01,29.91,10,10,5,14,3,21,0.00,2,,250
2013-8-2,71,64,55,61,55,50,94,68,46,30.09,29.99,29.92,10,10,5,13,1,,0.00,3,Rain,21
2013-8-3,77,64,50,55,50,46,94,66,34,30.23,30.17,30.09,10,10,10,10,3,,0.00,0,,332
2013-8-4,78,63,48,61,53,46,93,66,44,30.25,30.16,30.00,10,10,10,12,1,17,0.02,2,Rain-Thunderstorm,133
2013-8-5,82,72,62,68,63,59,94,78,48,30.01,29.90,29.85,10,9,0,26,8,33,0.90,5,Rain-Thunderstorm,208
2013-8-6,84,70,55,64,61,55,100,73,40,29.90,29.83,29.77,10,8,0,15,4,20,0.00,1,Fog,233
2013-8-7,73,66,57,61,56,52,100,73,47,30.06,29.98,29.85,10,10,4,14,8,21,0.00,3,,334
2013-8-8,73,65,57,64,58,52,94,79,60,30.10,30.03,29.99,10,10,5,10,3,,0.07,6,Rain,151
2013-8-9,75,64,53,63,56,54,100,74,50,30.17,30.10,30.04,10,8,0,14,4,18,0.00,1,Fog,318
2013-8-10,78,66,53,64,57,52,94,78,50,30.22,30.17,30.10,10,10,5,12,1,,0.17,4,Rain-Thunderstorm,228
2013-8-11,73,68,62,64,62,61,94,84,65,30.11,30.07,30.03,10,9,2,15,4,20,0.91,5,Rain-Thunderstorm,167
2013-8-12,75,66,57,61,56,54,94,72,47,30.11,30.08,30.06,10,10,4,12,3,16,0.00,0,,323
2013-8-13,73,63,53,57,53,48,94,73,43,30.22,30.17,30.11,10,10,10,12,4,16,0.00,1,,5
2013-8-14,73,60,46,57,52,46,100,70,44,30.23,30.19,30.13,10,10,1,9,2,,0.00,1,,194
2013-8-15,73,62,50,57,55,48,100,76,50,30.18,30.13,30.11,10,8,0,12,2,,0.00,3,Fog,162
2013-8-16,71,60,48,57,54,46,100,76,53,30.22,30.19,30.15,10,8,0,10,2,17,0.00,5,Fog,156
2013-8-17,78,66,53,57,55,52,94,68,44,30.20,30.17,30.12,10,10,10,16,4,21,0.00,1,,168
2013-8-18,78,66,55,57,55,52,88,64,39,30.14,30.10,30.03,10,10,10,17,6,24,0.00,0,,180
2013-8-19,86,75,64,68,64,57,88,69,51,30.06,29.97,29.91,10,10,10,16,9,22,0.00,1,,185
2013-8-20,86,78,69,73,69,64,89,76,62,29.93,29.91,29.88,10,10,7,12,8,,0.00,1,,177
2013-8-21,80,76,71,73,70,66,100,82,74,30.03,29.94,29.87,10,9,2,13,7,17,0.00,0,Rain-Thunderstorm,208
2013-8-22,80,72,62,72,63,57,94,74,50,30.15,30.10,30.01,10,8,0,15,5,23,0.04,2,Rain-Thunderstorm,34
2013-8-23,82,70,59,72,65,55,94,79,58,30.15,30.09,30.03,10,10,5,15,5,20,0.00,1,,125
2013-8-24,86,78,71,72,69,66,88,74,62,30.06,30.01,29.95,10,10,7,22,14,30,0.00,0,Rain-Thunderstorm,163
2013-8-25,91,83,75,73,71,70,83,69,52,30.05,30.01,29.98,10,10,10,21,14,29,0.00,0,,188
2013-8-26,91,83,75,75,72,70,83,68,52,30.02,29.97,29.88,10,10,10,16,11,22,0.00,0,,193
2013-8-27,91,83,75,79,71,66,89,69,55,29.94,29.88,29.83,10,10,5,14,8,20,0.00,0,,226
2013-8-28,89,81,73,79,75,72,100,85,62,30.03,29.98,29.94,10,6,0,10,3,,0.00,3,Fog,88
2013-8-29,91,80,69,73,68,63,89,66,38,30.02,29.97,29.90,10,10,10,15,4,17,0.00,0,,189
2013-8-30,82,73,64,72,68,61,94,78,54,29.96,29.92,29.90,10,10,10,14,6,17,0.00,1,,352
2013-8-31,87,72,57,68,62,55,100,74,43,29.92,29.87,29.79,10,10,1,17,3,32,0.00,1,Rain-Thunderstorm,189